Terminal Aerodrome Forecast
Issued by NWS Sterling, VA

Current Version | Previous Version | Graphics & Text | Print | Product List | Glossary On
Versions: 1 2 3 4 5 6 7 8 9 10 11 12 13 14 15 16 17 18 19 20 21 22
000
FTUS41 KLWX 251134
TAFIAD
TAF
KIAD 251134Z 2512/2618 27008KT P6SM SCT040
     FM252100 VRB05KT P6SM BKN200
     FM260300 VRB03KT P6SM BKN035 OVC120
     FM260800 04007KT 3SM -SN OVC025=

USA.gov is the U.S. government's official web portal to all federal, state and local government web resources and services.